Time;durP1;ratioP1;P1;durP2;ratioP2;P2;SDS_P1;SDS_P2;PMS_P1;PMS_P2;Temp;Humidity;BMP_temperature;BMP_pressure;BME280_temperature;BME280_humidity;BME280_pressure;Samples;Min_cycle;Max_cycle;Signal;HPM_P1;HPM_P2
2021/10/01 00:00:11;;;;;;;0.85;0.63;;;;;;;;;;4992059;28;20038;-86
2021/10/01 00:02:37;;;;;;;2.25;1.02;;;;;;;;;;5003265;28;20014;-86
2021/10/01 00:05:03;;;;;;;1.02;0.85;;;;;;;;;;4988066;28;20084;-84
2021/10/01 00:07:30;;;;;;;3.17;0.52;;;;;;;;;;4992165;28;20440;-85
2021/10/01 00:09:56;;;;;;;1.25;1.08;;;;;;;;;;4990502;28;20143;-85
2021/10/01 00:12:22;;;;;;;1.05;0.60;;;;;;;;;;4992977;28;20503;-84
2021/10/01 00:14:48;;;;;;;0.60;0.60;;;;;;;;;;5007269;28;20034;-85
2021/10/01 00:17:15;;;;;;;1.43;0.70;;;;;;;;;;4987135;28;20034;-85
2021/10/01 00:19:41;;;;;;;1.73;0.88;;;;;;;;;;4991108;28;20471;-85
2021/10/01 00:22:07;;;;;;;2.97;0.90;;;;;;;;;;4991275;28;20033;-85
2021/10/01 00:24:34;;;;;;;2.00;0.98;;;;;;;;;;4988305;28;20124;-86
2021/10/01 00:27:00;;;;;;;1.98;1.15;;;;;;;;;;4990329;28;20058;-84
2021/10/01 00:29:26;;;;;;;2.70;1.50;;;;;;;;;;5006731;28;20404;-85
2021/10/01 00:31:52;;;;;;;0.70;0.70;;;;;;;;;;4989750;28;20034;-85
2021/10/01 00:34:18;;;;;;;2.05;0.90;;;;;;;;;;4992463;28;20471;-85
2021/10/01 00:36:44;;;;;;;0.98;0.73;;;;;;;;;;4990373;28;20039;-85
2021/10/01 00:39:10;;;;;;;3.45;1.10;;;;;;;;;;5006911;28;20037;-85
2021/10/01 00:41:37;;;;;;;1.35;1.05;;;;;;;;;;4990267;28;20024;-84
2021/10/01 00:44:03;;;;;;;1.38;1.23;;;;;;;;;;4989713;28;20034;-85
2021/10/01 00:46:29;;;;;;;1.08;0.93;;;;;;;;;;4990967;28;20018;-85
2021/10/01 00:48:56;;;;;;;1.48;1.38;;;;;;;;;;5006165;28;20031;-85
2021/10/01 00:51:25;;;;;;;0.80;0.57;;;12.80;55.80;;;;;;5003900;28;20034;-85
2021/10/01 00:53:52;;;;;;;0.70;0.70;;;;;;;;;;4979319;28;20070;-84
2021/10/01 00:56:19;;;;;;;6.77;0.90;;;12.70;56.20;;;;;;4986190;28;20080;-84
2021/10/01 00:58:45;;;;;;;2.47;0.85;;;;;;;;;;4985981;28;20645;-85
2021/10/01 01:01:11;;;;;;;0.68;0.68;;;;;;;;;;5005699;28;20030;-85
2021/10/01 01:03:40;;;;;;;1.65;0.63;;;;;;;;;;4988142;28;20077;-86
2021/10/01 01:06:10;;;;;;;0.85;0.65;;;;;;;;;;4991728;28;20134;-86
2021/10/01 01:08:43;;;;;;;1.23;0.75;;;;;;;;;;4991228;28;20125;-85
2021/10/01 01:11:25;;;;;;;8.10;0.98;;;12.60;57.20;;;;;;5005404;28;20042;-85
2021/10/01 01:14:05;;;;;;;1.45;0.77;;;12.50;57.50;;;;;;5003041;28;20026;-84
2021/10/01 01:16:34;;;;;;;1.65;1.00;;;12.60;57.30;;;;;;4976402;28;20567;-85
2021/10/01 01:19:01;;;;;;;0.75;0.68;;;;;;;;;;4988070;28;20026;-84
2021/10/01 01:21:50;;;;;;;1.85;1.30;;;;;;;;;;4990256;28;20065;-84
2021/10/01 01:24:29;;;;;;;0.70;0.68;;;;;;;;;;4976447;28;20038;-84
2021/10/01 01:27:14;;;;;;;1.15;0.95;;;;;;;;;;4985329;28;20484;-85
2021/10/01 01:29:59;;;;;;;0.52;0.52;;;;;;;;;;4990090;28;20026;-85
2021/10/01 01:32:25;;;;;;;0.63;0.60;;;;;;;;;;4983653;28;20038;-85
2021/10/01 01:34:53;;;;;;;4.03;1.00;;;;;;;;;;4979824;28;20049;-84
2021/10/01 01:37:24;;;;;;;2.33;1.20;;;;;;;;;;4976089;28;20725;-86
2021/10/01 01:39:51;;;;;;;1.30;0.98;;;;;;;;;;4993001;28;20034;-84
2021/10/01 01:42:17;;;;;;;1.60;0.90;;;;;;;;;;4994053;28;20121;-85
2021/10/01 01:44:44;;;;;;;1.60;0.80;;;;;;;;;;4995233;28;20030;-85
2021/10/01 01:47:10;;;;;;;1.13;1.00;;;;;;;;;;5008312;28;20057;-84
2021/10/01 01:49:36;;;;;;;1.15;0.70;;;;;;;;;;4994962;28;20384;-86
2021/10/01 01:52:03;;;;;;;1.13;0.80;;;;;;;;;;4993709;28;20038;-85
2021/10/01 01:54:31;;;;;;;7.15;1.25;;;;;;;;;;4995490;28;20038;-85
2021/10/01 01:56:57;;;;;;;0.80;0.80;;;;;;;;;;4994634;28;20764;-86
2021/10/01 01:59:24;;;;;;;1.02;0.73;;;;;;;;;;4996319;28;20091;-86
2021/10/01 02:01:51;;;;;;;1.88;0.90;;;;;;;;;;4984993;28;20015;-85
2021/10/01 02:04:18;;;;;;;12.68;1.38;;;;;;;;;;4993602;28;20054;-85
2021/10/01 02:06:45;;;;;;;1.48;1.23;;;;;;;;;;5006382;28;20027;-87
2021/10/01 02:09:12;;;;;;;0.93;0.73;;;;;;;;;;4981718;28;20109;-85
2021/10/01 02:11:39;;;;;;;1.35;0.82;;;;;;;;;;4983432;28;20049;-85
2021/10/01 02:14:06;;;;;;;0.60;0.60;;;;;;;;;;4982053;28;20077;-84
2021/10/01 02:16:32;;;;;;;2.70;0.80;;;;;;;;;;4989408;28;20034;-85
2021/10/01 02:18:59;;;;;;;2.13;1.00;;;;;;;;;;4980701;28;20031;-85
2021/10/01 02:21:25;;;;;;;1.25;0.82;;;;;;;;;;5010214;28;20574;-84
2021/10/01 02:23:51;;;;;;;1.58;1.48;;;;;;;;;;4994030;28;20032;-84
2021/10/01 02:26:35;;;;;;;1.95;0.85;;;12.00;55.80;;;;;;4983292;28;20046;-85
2021/10/01 02:29:19;;;;;;;0.98;0.88;;;;;;;;;;4983166;28;20031;-84
2021/10/01 02:31:53;;;;;;;4.22;1.17;;;12.10;55.10;;;;;;4975569;28;20512;-84
2021/10/01 02:34:29;;;;;;;1.50;1.40;;;;;;;;;;4991095;28;20106;-84
2021/10/01 02:36:55;;;;;;;0.65;0.65;;;;;;;;;;4992002;28;20027;-85
2021/10/01 02:39:21;;;;;;;1.52;0.98;;;;;;;;;;4991320;28;20031;-84
2021/10/01 02:41:47;;;;;;;1.45;0.88;;;;;;;;;;4981756;28;20019;-85
2021/10/01 02:44:13;;;;;;;1.40;0.95;;;;;;;;;;4975125;28;20042;-85
2021/10/01 02:46:39;;;;;;;1.35;0.95;;;;;;;;;;4982096;28;20015;-86
2021/10/01 02:49:05;;;;;;;4.07;0.98;;;;;;;;;;4992683;28;20458;-86
2021/10/01 02:51:32;;;;;;;2.53;1.10;;;;;;;;;;4993716;28;20061;-85
2021/10/01 02:54:09;;;;;;;2.20;1.50;;;;;;;;;;4980746;28;20023;-86
2021/10/01 02:56:48;;;;;;;1.63;0.85;;;11.60;59.60;;;;;;4984669;28;20546;-85
2021/10/01 02:59:16;;;;;;;2.28;0.77;;;11.80;57.50;;;;;;4998732;28;20472;-85
2021/10/01 03:01:44;;;;;;;1.58;1.10;;;;;;;;;;4978693;28;20393;-85
2021/10/01 03:04:11;;;;;;;1.00;0.90;;;;;;;;;;4993104;28;20049;-85
2021/10/01 03:06:40;;;;;;;1.63;1.02;;;;;;;;;;5005168;28;20499;-84
2021/10/01 03:09:06;;;;;;;1.42;1.00;;;;;;;;;;4989924;28;20041;-85
2021/10/01 03:11:33;;;;;;;3.78;1.40;;;11.80;55.90;;;;;;4993333;28;20034;-85
2021/10/01 03:14:01;;;;;;;1.50;1.35;;;11.90;55.80;;;;;;4982465;28;20038;-85
2021/10/01 03:16:27;;;;;;;0.68;0.68;;;;;;;;;;4980425;28;20036;-85
2021/10/01 03:18:55;;;;;;;0.93;0.80;;;11.90;55.90;;;;;;4991804;28;20069;-86
2021/10/01 03:21:22;;;;;;;4.85;1.02;;;;;;;;;;4987753;28;20018;-85
2021/10/01 03:23:48;;;;;;;1.08;0.98;;;;;;;;;;4980709;28;20026;-85
2021/10/01 03:26:15;;;;;;;0.70;0.70;;;;;;;;;;4986085;28;20082;-85
2021/10/01 03:28:42;;;;;;;0.60;0.60;;;;;;;;;;4991198;28;20499;-85
2021/10/01 03:31:08;;;;;;;2.08;1.25;;;;;;;;;;4977593;28;20304;-85
2021/10/01 03:33:34;;;;;;;1.30;0.85;;;;;;;;;;5004521;28;20034;-86
2021/10/01 03:36:01;;;;;;;3.80;0.85;;;;;;;;;;4981119;28;20030;-85
2021/10/01 03:38:27;;;;;;;1.15;0.93;;;;;;;;;;4993629;28;20049;-85
2021/10/01 03:40:53;;;;;;;1.00;0.70;;;;;;;;;;4981159;28;20112;-85
2021/10/01 03:43:24;;;;;;;0.82;0.70;;;;;;;;;;4992092;28;20090;-85
2021/10/01 03:45:50;;;;;;;0.77;0.70;;;;;;;;;;4990833;28;20030;-85
2021/10/01 03:48:17;;;;;;;0.68;0.57;;;;;;;;;;4988833;28;20068;-84
2021/10/01 03:50:43;;;;;;;2.28;0.68;;;;;;;;;;5006133;28;20046;-85
2021/10/01 03:53:09;;;;;;;0.50;0.50;;;;;;;;;;5002907;28;20030;-85
2021/10/01 03:55:35;;;;;;;5.20;1.25;;;;;;;;;;4992505;28;20513;-84
2021/10/01 03:58:01;;;;;;;2.05;1.23;;;;;;;;;;4992443;28;20109;-84
2021/10/01 04:00:27;;;;;;;2.78;0.80;;;;;;;;;;4988474;28;20022;-85
2021/10/01 04:02:53;;;;;;;1.40;0.65;;;;;;;;;;4990425;28;20377;-85
2021/10/01 04:05:20;;;;;;;0.63;0.63;;;;;;;;;;5002546;28;20100;-84
2021/10/01 04:07:46;;;;;;;0.60;0.60;;;;;;;;;;4987857;28;20039;-84
2021/10/01 04:10:12;;;;;;;2.92;1.38;;;;;;;;;;5005204;28;20038;-84
2021/10/01 04:12:38;;;;;;;1.20;0.70;;;;;;;;;;4976801;28;20077;-86
2021/10/01 04:15:05;;;;;;;0.93;0.80;;;;;;;;;;4989841;28;20026;-85
2021/10/01 04:17:31;;;;;;;1.77;1.35;;;;;;;;;;4987149;28;20029;-86
2021/10/01 04:19:58;;;;;;;0.77;0.50;;;;;;;;;;4989414;28;20026;-85
2021/10/01 04:22:25;;;;;;;0.63;0.63;;;;;;;;;;4977840;28;20114;-85
2021/10/01 04:24:51;;;;;;;1.55;1.05;;;;;;;;;;4991102;28;20054;-85
2021/10/01 04:27:17;;;;;;;1.90;0.82;;;;;;;;;;4989068;28;20621;-85
2021/10/01 04:29:43;;;;;;;2.25;0.95;;;;;;;;;;4997870;28;20031;-85
2021/10/01 04:32:10;;;;;;;6.38;1.45;;;;;;;;;;4994423;28;20551;-85
2021/10/01 04:34:53;;;;;;;0.68;0.68;;;;;;;;;;5006378;28;20561;-85
2021/10/01 04:37:19;;;;;;;1.75;1.05;;;;;;;;;;4990959;28;20029;-85
2021/10/01 04:39:45;;;;;;;1.90;1.38;;;;;;;;;;5003191;28;20795;-85
2021/10/01 04:42:11;;;;;;;0.75;0.70;;;;;;;;;;4978468;28;20039;-86
2021/10/01 04:44:37;;;;;;;1.05;0.82;;;;;;;;;;4975612;28;20030;-85
2021/10/01 04:47:03;;;;;;;2.33;0.95;;;;;;;;;;4980932;28;20109;-86
2021/10/01 04:49:30;;;;;;;1.77;1.20;;;;;;;;;;4993981;28;20181;-86
2021/10/01 04:51:56;;;;;;;1.65;1.33;;;;;;;;;;5006131;28;20098;-85
2021/10/01 04:54:22;;;;;;;2.45;1.58;;;;;;;;;;4973837;28;20034;-85
2021/10/01 04:56:48;;;;;;;0.77;0.77;;;;;;;;;;4995241;28;20416;-86
2021/10/01 04:59:14;;;;;;;4.40;1.27;;;;;;;;;;4980147;28;20610;-86
2021/10/01 05:01:40;;;;;;;1.95;0.88;;;;;;;;;;5006469;28;20109;-84
2021/10/01 05:04:06;;;;;;;0.70;0.70;;;;;;;;;;4989815;28;20133;-84
2021/10/01 05:06:32;;;;;;;0.93;0.82;;;;;;;;;;4976636;28;20138;-85
2021/10/01 05:08:58;;;;;;;2.60;1.20;;;;;;;;;;5004988;28;20242;-85
2021/10/01 05:11:24;;;;;;;2.28;0.70;;;;;;;;;;4990908;28;20126;-85
2021/10/01 05:13:50;;;;;;;2.88;0.98;;;;;;;;;;4990325;28;20026;-85
2021/10/01 05:16:15;;;;;;;1.65;0.95;;;;;;;;;;4989851;28;20030;-86
2021/10/01 05:18:42;;;;;;;1.05;0.93;;;;;;;;;;4997271;28;20101;-84
2021/10/01 05:21:07;;;;;;;10.70;1.13;;;;;;;;;;4987416;28;20073;-84
2021/10/01 05:23:33;;;;;;;3.97;1.02;;;;;;;;;;4995891;28;20022;-84
2021/10/01 05:26:00;;;;;;;1.10;0.80;;;;;;;;;;4977988;28;20065;-84
2021/10/01 05:28:26;;;;;;;3.10;1.30;;;;;;;;;;5000640;28;20053;-83
2021/10/01 05:30:52;;;;;;;2.15;1.55;;;;;;;;;;4999085;28;20605;-84
2021/10/01 05:33:18;;;;;;;1.73;1.30;;;;;;;;;;4983777;28;20062;-83
2021/10/01 05:35:45;;;;;;;1.13;1.00;;;;;;;;;;4985583;28;20030;-83
2021/10/01 05:38:12;;;;;;;1.27;1.10;;;;;;;;;;4980137;28;20026;-83
2021/10/01 05:40:39;;;;;;;2.20;1.35;;;;;;;;;;4982734;28;20022;-84
2021/10/01 05:43:05;;;;;;;1.17;1.08;;;;;;;;;;4985477;28;20038;-83
2021/10/01 05:45:32;;;;;;;1.20;1.10;;;;;;;;;;4986146;28;20121;-83
2021/10/01 05:47:59;;;;;;;5.97;1.05;;;;;;;;;;4982774;28;20033;-84
2021/10/01 05:50:28;;;;;;;1.15;1.05;;;;;;;;;;4985464;28;20178;-84
2021/10/01 05:53:05;;;;;;;1.35;1.10;;;;;;;;;;4987431;28;20025;-86
2021/10/01 05:55:31;;;;;;;;;;;;;;;;;;5004255;28;20026;-85
2021/10/01 05:57:57;;;;;;;1.95;1.52;;;;;;;;;;4982909;28;19918;-83
2021/10/01 06:00:23;;;;;;;1.88;0.82;;;;;;;;;;5004628;28;20057;-85
2021/10/01 06:02:49;;;;;;;2.65;1.27;;;;;;;;;;5004056;28;20066;-86
2021/10/01 06:05:15;;;;;;;1.92;1.13;;;;;;;;;;4990096;28;20030;-85
2021/10/01 06:07:43;;;;;;;6.18;1.05;;;;;;;;;;5004293;28;20141;-85
2021/10/01 06:10:10;;;;;;;1.33;1.00;;;;;;;;;;4989469;28;20459;-85
2021/10/01 06:12:36;;;;;;;3.97;1.38;;;;;;;;;;4975034;28;20031;-85
2021/10/01 06:15:03;;;;;;;0.95;0.85;;;;;;;;;;5004748;28;20491;-86
2021/10/01 06:17:29;;;;;;;2.08;1.27;;;;;;;;;;4988017;28;20030;-84
2021/10/01 06:19:55;;;;;;;2.90;1.10;;;;;;;;;;4989338;28;20526;-85
2021/10/01 06:22:21;;;;;;;1.88;0.77;;;;;;;;;;5004803;28;20026;-85
2021/10/01 06:24:48;;;;;;;1.15;1.00;;;;;;;;;;4989917;28;20045;-86
2021/10/01 06:27:18;;;;;;;2.03;1.48;;;;;;;;;;4993834;28;20523;-86
2021/10/01 06:29:44;;;;;;;1.30;1.05;;;;;;;;;;4993892;28;20209;-87
2021/10/01 07:24:13;;;;;;;4.10;1.80;;;;;;;;;;5063514;28;20032;-90
2021/10/01 08:20:49;;;;;;;3.05;1.67;;;;;;;;;;5083642;28;20024;-87
2021/10/01 08:23:15;;;;;;;2.10;1.15;;;;;;;;;;5087249;28;20016;-88
2021/10/01 08:25:42;;;;;;;3.63;1.55;;;23.20;39.60;;;;;;5090005;28;20122;-88
2021/10/01 08:28:08;;;;;;;3.27;1.40;;;;;;;;;;5088659;28;20041;-88
2021/10/01 08:30:34;;;;;;;4.47;1.33;;;;;;;;;;5092960;28;20090;-88
2021/10/01 08:33:00;;;;;;;3.67;1.20;;;;;;;;;;5088539;28;20024;-86
2021/10/01 08:35:26;;;;;;;4.30;0.80;;;;;;;;;;5088423;28;20060;-85
2021/10/01 08:37:54;;;;;;;2.60;1.02;;;23.00;40.20;;;;;;5086151;28;20021;-85
2021/10/01 08:40:20;;;;;;;3.08;0.80;;;23.10;41.30;;;;;;5086728;28;20090;-89
2021/10/01 08:42:48;;;;;;;4.70;0.90;;;23.00;39.30;;;;;;5090111;28;20024;-89
2021/10/01 08:45:15;;;;;;;1.90;0.80;;;22.90;40.60;;;;;;5077496;28;20052;-87
2021/10/01 08:47:41;;;;;;;1.42;0.82;;;;;;;;;;5089615;28;20028;-89
2021/10/01 08:50:09;;;;;;;2.17;1.23;;;23.30;53.90;;;;;;5087249;28;20415;-86
2021/10/01 08:52:36;;;;;;;3.58;0.95;;;;;;;;;;5089310;28;20024;-88
2021/10/01 08:55:03;;;;;;;5.27;1.40;;;23.30;37.10;;;;;;5089110;28;20135;-89
2021/10/01 08:57:31;;;;;;;4.47;1.50;;;;;;;;;;5085017;28;20016;-90
2021/10/01 08:59:58;;;;;;;2.30;0.98;;;23.10;37.70;;;;;;5079906;28;20021;-89
2021/10/01 09:02:24;;;;;;;2.83;0.90;;;;;;;;;;5084829;28;20020;-90
2021/10/01 09:04:55;;;;;;;4.18;0.95;;;;;;;;;;5083355;28;20039;-89
2021/10/01 09:07:23;;;;;;;3.75;0.95;;;;;;;;;;5089401;28;20110;-89
2021/10/01 09:09:51;;;;;;;3.58;2.13;;;23.00;38.40;;;;;;5092352;28;20020;-89
2021/10/01 09:12:17;;;;;;;1.08;0.88;;;;;;;;;;5084806;28;20456;-87
2021/10/01 09:14:52;;;;;;;4.00;1.75;;;23.20;38.90;;;;;;5088995;28;20074;-90
2021/10/01 09:17:23;;;;;;;1.65;0.60;;;23.30;39.20;;;;;;5083914;28;20024;-86
2021/10/01 09:19:51;;;;;;;3.38;1.05;;;23.40;38.70;;;;;;5082714;28;20846;-88
2021/10/01 09:22:37;;;;;;;6.75;1.48;;;23.80;39.80;;;;;;5086464;28;20032;-88
2021/10/01 09:25:12;;;;;;;4.75;1.38;;;23.80;52.50;;;;;;5088079;28;20034;-88
2021/10/01 09:27:40;;;;;;;3.38;1.17;;;23.40;39.20;;;;;;5083704;28;20024;-89
2021/10/01 09:30:07;;;;;;;4.72;1.23;;;23.70;40.10;;;;;;5077582;28;20032;-88
2021/10/01 09:32:33;;;;;;;4.05;1.75;;;;;;;;;;5079062;28;20033;-88
2021/10/01 09:35:12;;;;;;;8.47;1.13;;;23.80;41.00;;;;;;5087561;28;20039;-89
2021/10/01 09:37:39;;;;;;;2.20;1.25;;;;;;;;;;5077099;28;20020;-86
2021/10/01 09:40:05;;;;;;;5.47;1.75;;;;;;;;;;5088302;28;20024;-86
2021/10/01 09:42:41;;;;;;;4.43;1.17;;;24.20;41.00;;;;;;5087873;28;20047;-86
2021/10/01 09:45:08;;;;;;;5.03;2.90;;;24.30;39.80;;;;;;5091283;28;20528;-87
2021/10/01 09:47:42;;;;;;;7.30;0.93;;;24.70;40.30;;;;;;5086660;28;20408;-87
2021/10/01 09:50:14;;;;;;;4.53;1.30;;;24.70;39.60;;;;;;5089573;28;20032;-86
2021/10/01 09:52:51;;;;;;;4.90;2.53;;;25.50;41.40;;;;;;5078019;28;20046;-86
2021/10/01 09:55:28;;;;;;;4.05;1.63;;;25.10;39.60;;;;;;5084193;28;20080;-86
2021/10/01 09:58:00;;;;;;;6.28;1.80;;;;;;;;;;5073034;28;20070;-86
2021/10/01 10:00:48;;;;;;;9.38;1.33;;;25.00;39.20;;;;;;5083065;28;20051;-87
2021/10/01 10:03:25;;;;;;;7.53;1.92;;;25.20;39.10;;;;;;5087009;28;20089;-88
2021/10/01 10:06:03;;;;;;;4.88;1.60;;;25.20;54.60;;;;;;5088768;28;20055;-89
2021/10/01 10:08:32;;;;;;;3.35;1.30;;;25.30;39.00;;;;;;5087766;28;20039;-87
2021/10/01 10:10:59;;;;;;;2.13;0.80;;;25.30;39.60;;;;;;5087948;28;20020;-86
2021/10/01 10:13:37;;;;;;;4.18;1.40;;;25.40;53.90;;;;;;5086496;28;20024;-87
2021/10/01 10:16:14;;;;;;;3.80;0.93;;;25.30;41.10;;;;;;5089389;28;20047;-88
2021/10/01 10:18:40;;;;;;;2.40;1.02;;;;;;;;;;5088454;28;20028;-87
2021/10/01 10:21:06;;;;;;;3.50;1.33;;;;;;;;;;5086459;28;20036;-87
2021/10/01 10:23:32;;;;;;;3.08;1.55;;;;;;;;;;5090697;28;20024;-89
2021/10/01 10:25:58;;;;;;;3.65;1.25;;;;;;;;;;5086482;28;20028;-86
2021/10/01 10:28:24;;;;;;;7.65;1.38;;;;;;;;;;5071643;28;20028;-89
2021/10/01 10:30:52;;;;;;;5.00;1.23;;;25.10;39.50;;;;;;5088496;28;20060;-89
2021/10/01 10:33:39;;;;;;;2.80;1.23;;;24.90;50.60;;;;;;5088631;28;20028;-89
2021/10/01 10:36:24;;;;;;;5.32;1.77;;;24.70;47.10;;;;;;5087062;28;20046;-89
2021/10/01 10:38:50;;;;;;;4.85;1.33;;;;;;;;;;5084939;28;20039;-87
2021/10/01 10:41:28;;;;;;;4.93;1.20;;;24.40;56.00;;;;;;5079007;28;20028;-88
2021/10/01 10:43:55;;;;;;;4.30;1.25;;;;;;;;;;5089672;28;20035;-87
2021/10/01 10:46:35;;;;;;;4.10;1.40;;;23.90;42.90;;;;;;5087614;28;20082;-87
2021/10/01 10:49:26;;;;;;;4.75;1.42;;;24.00;59.90;;;;;;5089749;28;20036;-87
2021/10/01 10:51:57;;;;;;;4.10;1.48;;;23.80;43.80;;;;;;5081550;28;20545;-88
2021/10/01 10:54:31;;;;;;;7.22;1.83;;;23.90;44.90;;;;;;5092654;28;20048;-88
2021/10/01 10:57:15;;;;;;;2.75;1.25;;;23.90;60.00;;;;;;5072635;28;20493;-87
2021/10/01 10:59:41;;;;;;;3.63;1.27;;;;;;;;;;5084601;28;20030;-88
2021/10/01 11:05:16;;;;;;;3.58;1.60;;;23.50;46.80;;;;;;5086357;28;20032;-87
2021/10/01 11:07:58;;;;;;;3.58;1.50;;;23.50;46.40;;;;;;5079718;28;20469;-87
2021/10/01 11:10:33;;;;;;;6.22;1.90;;;;;;;;;;5089758;28;20036;-87
2021/10/01 11:13:17;;;;;;;3.00;1.52;;;23.40;46.30;;;;;;5086330;28;20032;-86
2021/10/01 11:16:09;;;;;;;3.90;1.40;;;23.30;47.00;;;;;;5078364;28;20036;-88
2021/10/01 11:18:47;;;;;;;4.25;2.22;;;;;;;;;;5085602;28;20028;-89
2021/10/01 11:21:28;;;;;;;6.85;1.67;;;23.10;50.30;;;;;;5086794;28;20036;-87
2021/10/01 11:24:10;;;;;;;4.70;2.13;;;23.20;49.50;;;;;;5083187;28;20019;-87
2021/10/01 11:26:48;;;;;;;3.35;2.03;;;23.20;62.00;;;;;;5083610;28;20029;-86
2021/10/01 11:29:24;;;;;;;4.13;2.25;;;23.10;51.00;;;;;;5088316;28;20050;-88
2021/10/01 11:32:02;;;;;;;7.18;3.20;;;23.10;56.90;;;;;;5086168;28;20035;-87
2021/10/01 11:34:39;;;;;;;3.78;2.03;;;23.10;50.90;;;;;;5084648;28;20028;-86
2021/10/01 11:37:23;;;;;;;6.03;2.33;;;23.20;49.20;;;;;;5086490;28;20032;-86
2021/10/01 11:39:49;;;;;;;7.07;1.98;;;;;;;;;;5085024;28;20046;-86
2021/10/01 11:42:26;;;;;;;6.40;2.13;;;23.10;64.30;;;;;;5091537;28;20031;-87
2021/10/01 11:44:52;;;;;;;4.93;1.98;;;23.00;50.80;;;;;;5088253;28;20055;-85
2021/10/01 11:47:19;;;;;;;6.30;2.22;;;;;;;;;;5087487;28;20032;-88
2021/10/01 11:49:56;;;;;;;6.80;2.80;;;23.20;63.80;;;;;;5088092;28;20031;-88
2021/10/01 11:52:22;;;;;;;;;;;23.30;49.00;;;;;;5090224;28;20520;-88
2021/10/01 11:54:56;;;;;;;5.33;1.80;;;23.50;48.20;;;;;;5085010;28;19916;-84
2021/10/01 11:57:22;;;;;;;7.85;2.72;;;;;;;;;;5088616;28;20475;-87
2021/10/01 11:59:51;;;;;;;6.05;3.33;;;;;;;;;;5090555;28;20107;-85
2021/10/01 12:02:30;;;;;;;5.45;2.28;;;23.40;47.20;;;;;;5085090;28;20388;-86
2021/10/01 12:04:57;;;;;;;4.00;2.90;;;;;;;;;;5085218;28;20048;-85
2021/10/01 12:07:23;;;;;;;4.78;2.38;;;;;;;;;;5088371;28;20029;-85
2021/10/01 12:10:04;;;;;;;4.30;2.33;;;23.70;55.50;;;;;;5091035;28;20622;-85
2021/10/01 12:12:30;;;;;;;5.65;2.15;;;;;;;;;;5093014;28;20028;-94
2021/10/01 12:14:56;;;;;;;3.67;2.25;;;;;;;;;;5093491;28;20519;-92
2021/10/01 12:17:22;;;;;;;4.22;2.28;;;;;;;;;;5087087;28;20023;-94
2021/10/01 12:19:48;;;;;;;4.85;2.25;;;;;;;;;;5091351;28;20103;-92
2021/10/01 12:22:16;;;;;;;2.80;1.92;;;23.60;47.00;;;;;;5093099;28;20028;-92
2021/10/01 12:24:53;;;;;;;5.18;2.45;;;23.60;46.70;;;;;;5078881;28;20017;-92
2021/10/01 12:27:30;;;;;;;7.35;2.22;;;23.50;47.30;;;;;;5093755;28;20032;-93
2021/10/01 12:29:59;;;;;;;3.50;2.15;;;;;;;;;;5078278;28;20075;-91
2021/10/01 12:32:25;;;;;;;5.88;1.67;;;;;;;;;;5089341;28;20040;-93
2021/10/01 12:34:56;;;;;;;3.47;1.95;;;23.30;47.70;;;;;;5085825;28;20063;-94
2021/10/01 12:37:23;;;;;;;4.90;1.73;;;;;;;;;;5092373;28;20392;-91
2021/10/01 12:39:57;;;;;;;3.10;1.85;;;23.20;44.60;;;;;;5095513;28;20048;-91
2021/10/01 12:42:35;;;;;;;5.20;2.08;;;23.40;44.40;;;;;;5092291;28;20028;-92
2021/10/01 12:45:07;;;;;;;5.43;2.80;;;23.50;58.60;;;;;;5094681;28;20031;-91
2021/10/01 12:47:38;;;;;;;2.78;1.75;;;23.50;43.40;;;;;;5094866;28;20035;-90
2021/10/01 12:50:08;;;;;;;2.03;1.73;;;23.40;44.70;;;;;;5086439;28;20032;-90
2021/10/01 12:52:36;;;;;;;3.60;2.00;;;23.20;45.20;;;;;;5094888;28;20034;-91
2021/10/01 12:55:02;;;;;;;2.85;1.95;;;;;;;;;;5094711;28;20448;-90
2021/10/01 12:57:28;;;;;;;2.75;1.92;;;;;;;;;;5087019;28;20024;-92
2021/10/01 12:59:58;;;;;;;5.13;3.03;;;;;;;;;;5095725;28;20115;-93
2021/10/01 13:02:48;;;;;;;3.45;2.03;;;22.90;45.40;;;;;;5095498;28;20052;-91
2021/10/01 13:05:19;;;;;;;2.88;1.60;;;22.90;45.70;;;;;;5063889;28;20047;-90
2021/10/01 13:07:47;;;;;;;3.85;1.90;;;22.80;45.30;;;;;;5076764;28;20075;-92
2021/10/01 13:10:13;;;;;;;2.25;1.45;;;;;;;;;;5085781;28;20039;-92
2021/10/01 13:12:49;;;;;;;4.60;2.13;;;22.80;45.80;;;;;;5093872;28;20012;-92
2021/10/01 13:15:17;;;;;;;6.18;1.95;;;22.80;45.90;;;;;;5097920;28;20504;-93
2021/10/01 13:17:57;;;;;;;3.88;1.80;;;22.80;46.30;;;;;;5088269;28;20043;-91
2021/10/01 13:20:28;;;;;;;3.88;2.05;;;22.90;46.40;;;;;;5086142;28;20027;-92
2021/10/01 13:23:04;;;;;;;4.80;1.83;;;22.80;47.00;;;;;;5091186;28;20060;-91
2021/10/01 13:25:34;;;;;;;3.40;1.83;;;22.90;45.40;;;;;;5087512;28;20046;-91
2021/10/01 13:28:01;;;;;;;2.38;1.50;;;22.90;44.20;;;;;;5091448;28;20439;-91
2021/10/01 13:30:27;;;;;;;30.00;2.88;;;;;;;;;;5093417;28;20031;-91
2021/10/01 13:32:54;;;;;;;2.55;1.60;;;;;;;;;;5092626;28;20024;-91
2021/10/01 13:35:20;;;;;;;4.70;1.85;;;;;;;;;;5080452;28;20036;-91
2021/10/01 13:37:47;;;;;;;4.55;2.13;;;22.50;46.20;;;;;;5074245;28;20393;-92
2021/10/01 13:40:13;;;;;;;;;;;22.40;46.60;;;;;;5077739;28;20512;-92
2021/10/01 13:42:39;;;;;;;4.30;2.60;;;;;;;;;;5094583;28;19935;-91
2021/10/01 13:45:07;;;;;;;3.83;1.58;;;22.50;45.70;;;;;;5073427;28;20512;-92
2021/10/01 13:47:34;;;;;;;4.38;2.03;;;;;;;;;;5074002;28;20033;-92
2021/10/01 13:50:01;;;;;;;4.20;2.03;;;22.70;45.30;;;;;;5092286;28;20095;-92
2021/10/01 13:52:27;;;;;;;3.20;1.55;;;22.80;44.40;;;;;;5088540;28;20489;-93
2021/10/01 13:54:53;;;;;;;3.47;1.60;;;;;;;;;;5093247;28;20086;-94
2021/10/01 13:57:20;;;;;;;3.75;1.92;;;;;;;;;;5093011;28;20263;-92
2021/10/01 13:59:46;;;;;;;3.88;1.88;;;;;;;;;;5092124;28;20115;-92
2021/10/01 14:02:12;;;;;;;2.88;1.23;;;;;;;;;;5081551;28;20050;-91
2021/10/01 14:04:38;;;;;;;8.93;2.00;;;;;;;;;;5078123;28;20025;-92
2021/10/01 14:07:04;;;;;;;4.80;2.13;;;;;;;;;;5073503;28;20039;-91
2021/10/01 14:09:30;;;;;;;4.15;1.90;;;;;;;;;;5086769;28;20032;-92
2021/10/01 14:11:56;;;;;;;4.05;1.40;;;;;;;;;;5074946;28;20024;-90
2021/10/01 14:14:22;;;;;;;2.78;1.60;;;;;;;;;;5086431;28;20519;-91
2021/10/01 14:16:48;;;;;;;2.70;1.83;;;;;;;;;;5092114;28;20032;-91
2021/10/01 14:19:14;;;;;;;2.65;1.95;;;;;;;;;;5091120;28;20052;-92
2021/10/01 14:21:40;;;;;;;2.92;1.48;;;;;;;;;;5093941;28;20024;-91
2021/10/01 14:24:06;;;;;;;5.72;1.83;;;;;;;;;;5072501;28;20107;-91
2021/10/01 14:26:32;;;;;;;2.13;1.50;;;;;;;;;;5077326;28;20109;-92
2021/10/01 14:28:59;;;;;;;6.28;2.03;;;;;;;;;;5092620;28;20028;-91
2021/10/01 14:31:25;;;;;;;3.67;1.52;;;;;;;;;;5087284;28;20033;-93
2021/10/01 14:33:51;;;;;;;4.55;1.60;;;22.10;46.60;;;;;;5071990;28;20020;-92
2021/10/01 14:36:17;;;;;;;3.92;1.70;;;;;;;;;;5088840;28;20511;-91
2021/10/01 14:38:43;;;;;;;1.98;1.15;;;;;;;;;;5087721;28;20594;-91
2021/10/01 14:41:10;;;;;;;2.83;2.00;;;22.00;46.70;;;;;;5075827;28;20040;-91
2021/10/01 14:43:36;;;;;;;3.72;2.03;;;;;;;;;;5076055;28;20024;-92
2021/10/01 14:46:04;;;;;;;5.03;1.35;;;22.00;47.20;;;;;;5090538;28;20024;-92
2021/10/01 14:48:31;;;;;;;3.03;1.90;;;22.00;46.40;;;;;;5091963;28;20043;-92
2021/10/01 14:50:58;;;;;;;4.80;2.03;;;22.00;46.60;;;;;;5087779;28;20036;-92
2021/10/01 14:53:24;;;;;;;;;;;22.00;46.00;;;;;;5091064;28;20063;-92
2021/10/01 14:55:50;;;;;;;3.78;1.33;;;;;;;;;;5089923;28;19955;-91
2021/10/01 14:58:18;;;;;;;3.53;1.27;;;;;;;;;;5080274;28;20033;-93
2021/10/01 15:00:46;;;;;;;2.40;1.48;;;;;;;;;;5076623;28;20022;-91
2021/10/01 15:03:12;;;;;;;2.47;1.73;;;;;;;;;;5092527;28;20036;-93
2021/10/01 15:05:38;;;;;;;2.25;1.25;;;;;;;;;;5077133;28;20082;-92
2021/10/01 15:08:04;;;;;;;1.58;0.82;;;;;;;;;;5086147;28;20073;-91
2021/10/01 15:10:30;;;;;;;3.83;1.65;;;;;;;;;;5088187;28;20021;-93
2021/10/01 15:12:56;;;;;;;10.30;1.48;;;;;;;;;;5092435;28;20745;-91
2021/10/01 15:15:25;;;;;;;7.60;1.80;;;;;;;;;;5078337;28;20060;-92
2021/10/01 15:17:51;;;;;;;3.67;2.00;;;;;;;;;;5093253;28;20580;-91
2021/10/01 15:20:17;;;;;;;2.45;1.73;;;;;;;;;;5093203;28;20055;-92
2021/10/01 15:22:44;;;;;;;3.30;1.40;;;;;;;;;;5086866;28;20021;-91
2021/10/01 15:25:11;;;;;;;2.03;1.65;;;;;;;;;;5076959;28;20097;-91
2021/10/01 15:27:37;;;;;;;2.55;1.33;;;;;;;;;;5076433;28;20104;-90
2021/10/01 15:30:03;;;;;;;3.08;1.20;;;;;;;;;;5075746;28;20406;-92
2021/10/01 15:32:30;;;;;;;3.72;1.17;;;21.60;45.40;;;;;;5105257;28;20079;-91
2021/10/01 15:34:56;;;;;;;2.20;1.00;;;;;;;;;;5098751;28;20064;-90
2021/10/01 15:37:22;;;;;;;2.58;1.35;;;;;;;;;;5093404;28;20481;-91
2021/10/01 15:39:48;;;;;;;2.55;1.60;;;;;;;;;;5095926;28;20034;-91
2021/10/01 15:42:14;;;;;;;2.75;1.42;;;;;;;;;;5093114;28;20035;-91
2021/10/01 15:44:40;;;;;;;1.23;0.93;;;;;;;;;;5094402;28;20016;-91
2021/10/01 15:47:08;;;;;;;1.63;1.05;;;;;;;;;;5090247;28;20093;-92
2021/10/01 15:49:34;;;;;;;2.17;1.27;;;;;;;;;;5088774;28;20020;-91
2021/10/01 15:52:00;;;;;;;2.33;1.13;;;;;;;;;;5092670;28;20032;-91
2021/10/01 15:54:26;;;;;;;3.30;1.20;;;;;;;;;;5096246;28;20046;-91
2021/10/01 15:56:52;;;;;;;3.05;1.25;;;;;;;;;;5095460;28;20032;-90
2021/10/01 15:59:18;;;;;;;1.92;1.45;;;;;;;;;;5091489;28;20027;-91
2021/10/01 16:01:44;;;;;;;3.30;1.58;;;;;;;;;;5083925;28;20035;-91
2021/10/01 16:04:10;;;;;;;3.17;1.13;;;;;;;;;;5075689;28;20024;-92